Time;durP1;ratioP1;P1;durP2;ratioP2;P2;SDS_P1;SDS_P2;PMS_P1;PMS_P2;Temp;Humidity;BMP_temperature;BMP_pressure;BME280_temperature;BME280_humidity;BME280_pressure;Samples;Min_cycle;Max_cycle;Signal;HPM_P1;HPM_P2
2023/03/21 00:01:08;;;;;;;1.50;1.40;;;;;;;6.05;77.87;97849.53;1704501;75;689427;-71
2023/03/21 00:03:38;;;;;;;1.65;1.55;;;;;;;6.11;77.01;97850.50;1712681;75;631050;-72
2023/03/21 00:06:11;;;;;;;1.50;1.20;;;;;;;6.10;76.92;97854.41;1704458;75;688822;-75
2023/03/21 00:08:44;;;;;;;1.50;1.30;;;;;;;6.09;77.48;97846.69;1712611;75;629922;-73
2023/03/21 00:11:15;;;;;;;2.45;1.70;;;;;;;6.07;77.79;97843.66;1704495;75;688109;-75
2023/03/21 00:13:45;;;;;;;1.70;1.45;;;;;;;6.13;77.93;97847.31;1712651;75;631027;-72
2023/03/21 00:16:19;;;;;;;1.45;1.25;;;;;;;6.15;77.85;97845.69;1704795;75;687768;-77
2023/03/21 00:18:52;;;;;;;0.80;0.80;;;;;;;6.15;77.75;97847.63;1712662;75;631326;-73
2023/03/21 00:21:27;;;;;;;1.15;1.05;;;;;;;6.14;77.56;97843.41;1705100;75;689754;-71
2023/03/21 00:24:01;;;;;;;1.45;1.20;;;;;;;6.19;77.65;97849.03;1711736;75;630988;-70
2023/03/21 00:26:31;;;;;;;1.80;1.10;;;;;;;6.25;77.72;97843.78;1713222;75;631045;-71
2023/03/21 00:29:02;;;;;;;2.50;1.00;;;;;;;6.28;77.51;97842.94;1705438;75;630973;-72
2023/03/21 00:31:32;;;;;;;0.90;0.90;;;;;;;6.32;77.46;97845.50;1712570;75;631023;-72
2023/03/21 00:34:03;;;;;;;1.05;0.95;;;;;;;6.31;77.83;97839.31;1705673;75;630999;-73
2023/03/21 00:36:33;;;;;;;1.60;1.10;;;;;;;6.30;77.82;97837.81;1713193;75;630991;-73
2023/03/21 00:39:06;;;;;;;1.60;1.20;;;;;;;6.27;78.32;97835.94;1705463;75;630978;-74
2023/03/21 00:41:37;;;;;;;1.20;1.10;;;;;;;6.29;78.23;97844.44;1712848;75;631037;-72
2023/03/21 00:44:07;;;;;;;1.20;1.10;;;;;;;6.29;78.61;97835.53;1705412;75;631327;-71
2023/03/21 00:46:37;;;;;;;1.10;1.00;;;;;;;6.36;77.79;97836.03;1712895;75;631373;-72
2023/03/21 00:49:07;;;;;;;1.20;1.10;;;;;;;6.34;78.31;97827.53;1705508;75;631004;-74
2023/03/21 00:51:38;;;;;;;2.00;1.10;;;;;;;6.42;77.92;97830.00;1712880;75;630999;-73
2023/03/21 00:54:13;;;;;;;1.00;0.90;;;;;;;6.46;76.75;97833.38;1705482;75;630985;-72
2023/03/21 00:56:43;;;;;;;1.20;1.10;;;;;;;6.51;77.78;97825.38;1713218;75;631011;-73
2023/03/21 00:59:13;;;;;;;1.20;1.10;;;;;;;6.54;76.50;97831.91;1705529;75;631030;-72
2023/03/21 01:01:45;;;;;;;1.20;1.10;;;;;;;6.57;77.00;97831.78;1712704;75;630991;-75
2023/03/21 01:04:16;;;;;;;1.90;1.20;;;;;;;6.60;77.11;97830.13;1705360;75;631407;-72
2023/03/21 01:06:47;;;;;;;1.10;1.00;;;;;;;6.60;76.54;97830.13;1713014;75;630978;-72
2023/03/21 01:09:24;;;;;;;1.30;1.20;;;;;;;6.61;76.77;97826.19;1705215;75;631497;-73
2023/03/21 01:11:55;;;;;;;1.10;1.00;;;;;;;6.64;76.60;97827.28;1712969;75;631426;-72
2023/03/21 01:14:26;;;;;;;1.10;1.00;;;;;;;6.60;77.49;97825.44;1705059;75;689898;-73
2023/03/21 01:16:57;;;;;;;1.20;1.10;;;;;;;6.63;76.97;97821.09;1712924;75;630960;-72
2023/03/21 01:19:28;;;;;;;1.75;1.55;;;;;;;6.55;77.27;97820.59;1705094;75;689832;-71
2023/03/21 01:21:59;;;;;;;1.60;1.40;;;;;;;6.60;77.29;97821.97;1713307;75;630968;-72
2023/03/21 01:24:32;;;;;;;1.55;1.15;;;;;;;6.63;77.69;97815.63;1704638;75;689325;-71
2023/03/21 01:27:04;;;;;;;1.40;1.30;;;;;;;6.65;77.40;97823.38;1713299;75;631011;-73
2023/03/21 01:29:34;;;;;;;1.20;1.10;;;;;;;6.69;77.23;97816.59;1704804;75;689817;-73
2023/03/21 01:32:05;;;;;;;1.90;1.25;;;;;;;6.66;77.76;97822.16;1712537;75;631353;-72
2023/03/21 01:34:35;;;;;;;1.95;1.30;;;;;;;6.77;77.16;97817.09;1704819;75;688889;-73
2023/03/21 01:37:05;;;;;;;1.90;1.40;;;;;;;6.77;76.54;97815.13;1713278;75;630973;-73
2023/03/21 01:39:39;;;;;;;1.40;1.10;;;;;;;6.80;76.31;97814.22;1704803;75;688400;-71
2023/03/21 01:42:09;;;;;;;1.10;1.00;;;;;;;6.87;76.09;97824.06;1712970;75;630995;-70
2023/03/21 01:44:59;;;;;;;1.55;1.30;;;;;;;6.83;77.02;97821.50;1704620;75;689909;-71
2023/03/21 01:47:30;;;;;;;1.40;1.20;;;;;;;6.81;76.91;97823.16;1705483;75;631402;-72
2023/03/21 01:50:05;;;;;;;2.00;1.40;;;;;;;6.88;76.41;97809.28;1712774;75;630972;-75
2023/03/21 01:52:40;;;;;;;2.10;1.50;;;;;;;6.90;76.30;97806.09;1705367;75;630975;-73
2023/03/21 01:55:16;;;;;;;2.00;1.30;;;;;;;6.90;75.71;97806.84;1713255;75;630975;-73
2023/03/21 01:57:53;;;;;;;1.30;1.20;;;;;;;6.83;77.17;97793.50;1704822;75;689894;-72
2023/03/21 02:00:25;;;;;;;1.80;1.10;;;;;;;6.93;77.70;97799.78;1705419;75;630963;-73
2023/03/21 02:02:58;;;;;;;1.55;1.30;;;;;;;6.87;78.43;97798.84;1712647;75;630952;-74
2023/03/21 02:05:35;;;;;;;2.30;2.10;;;;;;;6.75;79.45;97781.41;1705410;75;630964;-72
2023/03/21 02:08:06;;;;;;;2.80;2.30;;;;;;;6.85;79.50;97782.19;1713245;75;630968;-73
2023/03/21 02:10:39;;;;;;;2.20;1.80;;;;;;;6.91;79.26;97783.13;1705837;75;631333;-71
2023/03/21 02:13:10;;;;;;;2.75;1.95;;;;;;;6.96;78.71;97774.38;1713157;75;631290;-71
2023/03/21 02:15:42;;;;;;;2.00;1.40;;;;;;;6.96;78.00;97777.84;1705347;75;630972;-74
2023/03/21 02:18:24;;;;;;;1.60;1.50;;;;;;;6.95;77.85;97773.63;1712903;75;630962;-72
2023/03/21 02:21:31;;;;;;;1.65;1.40;;;;;;;6.96;77.76;97772.41;1704922;75;690931;-72
2023/03/21 02:24:45;;;;;;;1.95;1.60;;;;;;;6.94;78.44;97774.06;1704926;75;690931;-71
2023/03/21 02:27:20;;;;;;;1.65;1.35;;;;;;;6.90;78.40;97771.47;1704965;75;690941;-73
2023/03/21 02:30:43;;;;;;;1.90;1.50;;;;;;;6.89;77.48;97771.94;1709087;75;630963;-71
2023/03/21 02:33:49;;;;;;;2.30;1.65;;;;;;;6.89;78.35;97775.41;1705194;75;631054;-73
2023/03/21 02:36:33;;;;;;;1.60;1.30;;;;;;;6.85;77.56;97776.75;1705134;75;690785;-77
2023/03/21 02:39:16;;;;;;;1.60;1.40;;;;;;;6.81;76.53;97783.09;1705834;75;631003;-74
2023/03/21 02:41:54;;;;;;;1.60;1.40;;;;;;;6.67;78.55;97772.00;1712598;75;630989;-72
2023/03/21 02:44:32;;;;;;;2.65;1.80;;;;;;;6.70;78.36;97774.56;1704732;75;685524;-72
2023/03/21 02:47:05;;;;;;;2.30;2.00;;;;;;;6.64;77.96;97775.59;1705091;75;630992;-72
2023/03/21 02:49:43;;;;;;;1.50;1.30;;;;;;;6.58;78.15;97776.19;1712817;75;632008;-71
2023/03/21 02:52:19;;;;;;;1.60;1.50;;;;;;;6.56;77.98;97773.13;1705199;75;631032;-74
2023/03/21 02:54:53;;;;;;;1.60;1.40;;;;;;;6.46;78.40;97777.03;1712696;75;631042;-71
2023/03/21 02:57:25;;;;;;;1.70;1.60;;;;;;;6.35;79.78;97777.41;1705542;75;632939;-73
2023/03/21 02:59:56;;;;;;;5.20;2.90;;;;;;;6.06;81.96;97779.63;1712542;75;631043;-71
2023/03/21 03:02:30;;;;;;;4.05;3.30;;;;;;;5.96;82.63;97773.34;1704472;75;688566;-75
2023/03/21 03:05:00;;;;;;;5.20;3.20;;;;;;;6.04;81.63;97766.50;1712643;75;631986;-72
2023/03/21 03:07:43;;;;;;;2.85;2.10;;;;;;;6.05;81.56;97770.72;1704687;75;681180;-72
2023/03/21 03:10:33;;;;;;;3.00;2.20;;;;;;;6.03;80.91;97764.22;1705022;75;631933;-71
2023/03/21 03:13:18;;;;;;;1.90;1.70;;;;;;;5.94;80.82;97771.09;1712692;75;632072;-74
2023/03/21 03:16:04;;;;;;;2.00;1.70;;;;;;;5.92;81.41;97778.16;1704715;75;691726;-72
2023/03/21 03:18:44;;;;;;;2.05;1.70;;;;;;;5.93;80.52;97777.69;1705292;75;632100;-71
2023/03/21 03:21:20;;;;;;;2.30;1.70;;;;;;;5.89;80.95;97782.50;1712856;75;630999;-71
2023/03/21 03:23:55;;;;;;;2.60;1.65;;;;;;;5.89;80.82;97785.22;1704407;75;690916;-72
2023/03/21 03:26:35;;;;;;;2.00;1.75;;;;;;;5.84;80.60;97774.16;1712474;75;631084;-71
2023/03/21 03:29:10;;;;;;;1.35;1.20;;;;;;;5.84;81.52;97788.47;1704737;75;690825;-71
2023/03/21 03:31:47;;;;;;;1.80;1.50;;;;;;;5.77;81.29;97786.00;1712702;75;630993;-71
2023/03/21 03:34:25;;;;;;;1.70;1.40;;;;;;;5.80;80.80;97784.38;1704361;75;688418;-75
2023/03/21 03:36:59;;;;;;;1.70;1.50;;;;;;;5.77;82.55;97786.00;1705154;75;631011;-71
2023/03/21 03:39:37;;;;;;;1.80;1.60;;;;;;;5.79;82.04;97780.13;1712458;75;631086;-73
2023/03/21 03:42:17;;;;;;;2.25;1.60;;;;;;;5.81;81.53;97789.38;1705271;75;631011;-71
2023/03/21 03:44:47;;;;;;;1.60;1.30;;;;;;;5.83;82.01;97788.94;1712740;75;631929;-72
2023/03/21 03:47:26;;;;;;;2.60;1.50;;;;;;;5.84;82.09;97788.47;1704955;75;689905;-72
2023/03/21 03:50:05;;;;;;;1.70;1.40;;;;;;;5.80;82.50;97787.88;1706064;75;630967;-75
2023/03/21 03:52:40;;;;;;;1.90;1.50;;;;;;;5.76;82.57;97785.25;1713593;75;632010;-73
2023/03/21 03:55:13;;;;;;;3.30;2.00;;;;;;;5.72;83.09;97781.91;1705897;75;632029;-72
2023/03/21 03:57:47;;;;;;;1.70;1.60;;;;;;;5.67;82.96;97776.25;1713557;75;632025;-71
2023/03/21 04:00:19;;;;;;;3.20;1.90;;;;;;;5.65;82.84;97779.44;1706044;75;631997;-71
2023/03/21 04:02:50;;;;;;;2.10;1.70;;;;;;;5.59;82.94;97781.19;1713729;75;632006;-72
2023/03/21 04:05:21;;;;;;;2.35;2.05;;;;;;;5.51;84.31;97777.94;1705471;75;690908;-72
2023/03/21 04:07:51;;;;;;;2.25;1.70;;;;;;;5.49;83.87;97783.06;1713736;75;631898;-74
2023/03/21 04:10:23;;;;;;;2.00;1.60;;;;;;;5.45;84.25;97782.41;1705412;75;690881;-72
2023/03/21 04:12:56;;;;;;;1.70;1.60;;;;;;;5.37;84.15;97783.09;1713109;75;632768;-71
2023/03/21 04:15:26;;;;;;;1.50;1.40;;;;;;;5.32;84.00;97782.44;1704906;75;689292;-71
2023/03/21 04:17:56;;;;;;;1.45;1.35;;;;;;;5.32;84.56;97781.69;1712751;75;631043;-71
2023/03/21 04:20:27;;;;;;;1.90;1.40;;;;;;;5.23;84.23;97792.44;1704804;75;689892;-75
2023/03/21 04:22:57;;;;;;;1.80;1.30;;;;;;;5.22;83.51;97780.03;1712760;75;632009;-72
2023/03/21 04:25:29;;;;;;;1.45;1.20;;;;;;;5.19;85.17;97791.78;1704887;75;691932;-73
2023/03/21 04:28:02;;;;;;;1.40;1.30;;;;;;;5.13;84.04;97794.28;1712959;75;633075;-72
2023/03/21 04:30:33;;;;;;;1.35;1.20;;;;;;;5.07;84.22;97796.78;1704759;75;690932;-73
2023/03/21 04:33:03;;;;;;;1.50;1.20;;;;;;;5.05;82.95;97793.75;1712836;75;630965;-72
2023/03/21 04:35:33;;;;;;;1.45;1.00;;;;;;;5.07;83.05;97793.31;1704982;75;689767;-72
2023/03/21 04:38:03;;;;;;;1.85;1.15;;;;;;;4.93;83.95;97791.81;1713172;75;633051;-74
2023/03/21 04:40:33;;;;;;;1.50;1.30;;;;;;;4.83;84.72;97799.06;1704765;75;692384;-73
2023/03/21 04:43:06;;;;;;;1.20;1.05;;;;;;;4.81;84.71;97800.69;1713059;75;633059;-73
2023/03/21 04:45:36;;;;;;;3.30;1.20;;;;;;;4.76;85.06;97801.22;1705211;75;688637;-73
2023/03/21 04:48:08;;;;;;;1.30;1.15;;;;;;;4.72;84.89;97798.63;1713026;75;631989;-73
2023/03/21 04:50:38;;;;;;;1.10;1.00;;;;;;;4.67;84.32;97802.63;1704918;75;691935;-71
2023/03/21 04:53:08;;;;;;;1.40;1.10;;;;;;;4.69;84.89;97796.78;1712394;75;632498;-74
2023/03/21 04:55:38;;;;;;;3.20;1.25;;;;;;;4.57;85.42;97797.50;1704923;75;687126;-72
2023/03/21 04:58:11;;;;;;;1.40;1.10;;;;;;;4.55;85.22;97800.66;1713017;75;632026;-72
2023/03/21 05:00:41;;;;;;;1.75;1.35;;;;;;;4.36;86.26;97801.59;1704637;75;688666;-73
2023/03/21 05:03:18;;;;;;;2.40;1.90;;;;;;;4.41;86.50;97815.38;1712985;75;631946;-73
2023/03/21 05:05:49;;;;;;;2.00;1.60;;;;;;;4.34;86.69;97809.41;1704818;75;691297;-72
2023/03/21 05:08:19;;;;;;;1.40;1.10;;;;;;;4.37;86.01;97816.66;1712766;75;632115;-73
2023/03/21 05:10:49;;;;;;;1.25;1.15;;;;;;;4.36;85.32;97812.44;1704959;75;689405;-72
2023/03/21 05:13:22;;;;;;;1.40;1.10;;;;;;;4.36;85.11;97817.88;1712531;75;632031;-71
2023/03/21 05:15:52;;;;;;;1.95;1.30;;;;;;;4.33;85.62;97824.13;1704997;75;692003;-72
2023/03/21 05:18:23;;;;;;;2.50;1.20;;;;;;;4.31;84.62;97812.97;1713270;75;632924;-74
2023/03/21 05:20:55;;;;;;;2.05;1.15;;;;;;;4.32;85.56;97814.50;1705063;75;690685;-72
2023/03/21 05:23:30;;;;;;;1.70;1.20;;;;;;;4.30;85.58;97812.19;1712512;75;633102;-74
2023/03/21 05:26:00;;;;;;;1.50;1.30;;;;;;;4.32;85.55;97814.50;1704793;75;690509;-70
2023/03/21 05:28:35;;;;;;;1.90;1.35;;;;;;;4.27;86.72;97826.59;1713210;75;633064;-72
2023/03/21 05:31:06;;;;;;;1.30;1.05;;;;;;;4.27;85.97;97821.94;1704777;75;686863;-74
2023/03/21 05:33:36;;;;;;;1.60;1.00;;;;;;;4.21;86.80;97820.19;1713118;75;632069;-72
2023/03/21 05:36:07;;;;;;;1.30;1.20;;;;;;;4.21;86.93;97828.31;1704781;75;690375;-71
2023/03/21 05:38:37;;;;;;;1.65;1.35;;;;;;;4.16;88.04;97826.13;1713025;75;632054;-72
2023/03/21 05:41:09;;;;;;;2.85;1.40;;;;;;;4.20;87.71;97826.81;1705053;75;689899;-73
2023/03/21 05:43:42;;;;;;;1.45;1.20;;;;;;;4.20;88.19;97829.50;1712936;83;632955;-74
2023/03/21 05:46:13;;;;;;;1.75;1.30;;;;;;;4.17;89.06;97822.25;1704985;75;690908;-72
2023/03/21 05:48:43;;;;;;;1.80;1.30;;;;;;;4.27;87.58;97835.50;1712913;75;631995;-73
2023/03/21 05:51:13;;;;;;;1.45;1.15;;;;;;;4.29;87.67;97826.19;1704781;75;690928;-73
2023/03/21 05:53:44;;;;;;;1.85;1.40;;;;;;;4.32;88.21;97826.06;1712787;75;633048;-73
2023/03/21 05:56:14;;;;;;;1.85;1.40;;;;;;;4.34;87.80;97834.53;1704985;75;690924;-73
2023/03/21 05:58:47;;;;;;;1.45;1.35;;;;;;;4.39;88.15;97822.41;1712530;75;632010;-73
2023/03/21 06:01:17;;;;;;;1.65;1.30;;;;;;;4.43;86.96;97834.69;1704987;75;688805;-73
2023/03/21 06:03:47;;;;;;;1.50;1.20;;;;;;;4.40;87.31;97837.47;1713069;75;630947;-74
2023/03/21 06:06:18;;;;;;;1.65;1.40;;;;;;;4.48;87.30;97828.72;1704372;75;689151;-72
2023/03/21 06:08:48;;;;;;;1.60;1.35;;;;;;;4.53;87.67;97834.81;1712754;75;631899;-74
2023/03/21 06:11:28;;;;;;;1.20;1.00;;;;;;;4.56;87.04;97833.94;1704893;75;689831;-75
2023/03/21 06:14:00;;;;;;;2.10;1.50;;;;;;;4.58;86.43;97845.13;1705518;75;631982;-72
2023/03/21 06:16:31;;;;;;;2.70;1.30;;;;;;;4.59;87.35;97843.94;1712922;75;630972;-72
2023/03/21 06:19:02;;;;;;;1.30;1.20;;;;;;;4.66;86.94;97846.44;1705253;75;632041;-71
2023/03/21 06:21:32;;;;;;;4.70;1.80;;;;;;;4.67;87.51;97840.59;1712867;75;631871;-73
2023/03/21 06:24:02;;;;;;;3.20;1.40;;;;;;;4.75;86.62;97838.44;1705564;75;645847;-74
2023/03/21 06:26:35;;;;;;;1.60;1.30;;;;;;;4.83;86.87;97837.03;1713013;75;630964;-73
2023/03/21 06:29:08;;;;;;;1.55;1.30;;;;;;;4.91;86.87;97843.03;1705207;75;633045;-73
2023/03/21 06:31:38;;;;;;;1.60;1.20;;;;;;;4.97;86.88;97841.28;1712856;75;630972;-74
2023/03/21 06:34:10;;;;;;;1.30;1.20;;;;;;;5.22;86.11;97837.81;1704884;75;632027;-73
2023/03/21 06:36:43;;;;;;;1.80;1.30;;;;;;;5.86;85.58;97840.41;1713002;75;631890;-74
2023/03/21 06:39:14;;;;;;;1.50;1.40;;;;;;;6.85;79.69;97848.25;1705294;75;633040;-74
2023/03/21 06:41:45;;;;;;;1.80;1.30;;;;;;;8.12;74.41;97848.31;1713050;75;630939;-71
2023/03/21 06:44:20;;;;;;;2.25;1.30;;;;;;;9.47;68.20;97848.19;1705563;75;630972;-70
2023/03/21 06:46:51;;;;;;;1.70;1.40;;;;;;;10.73;62.77;97846.19;1712238;75;632108;-74
2023/03/21 06:49:22;;;;;;;2.40;1.75;;;;;;;11.31;60.47;97846.63;1704800;75;690833;-70
2023/03/21 06:51:53;;;;;;;1.90;1.50;;;;;;;12.38;56.59;97842.50;1712696;75;632042;-71
2023/03/21 06:54:24;;;;;;;1.75;1.20;;;;;;;12.96;54.16;97853.53;1704489;75;690936;-73
2023/03/21 06:56:54;;;;;;;2.40;1.60;;;;;;;13.41;52.00;97846.41;1712461;75;633036;-70
2023/03/21 06:59:27;;;;;;;2.25;1.20;;;;;;;13.65;51.38;97848.03;1704620;75;689837;-72
2023/03/21 07:01:57;;;;;;;1.70;1.20;;;;;;;14.01;51.24;97838.22;1712596;75;632092;-73
2023/03/21 07:04:29;;;;;;;1.30;1.20;;;;;;;14.01;50.16;97837.47;1704531;75;690940;-73
2023/03/21 07:06:59;;;;;;;3.50;1.50;;;;;;;13.70;50.75;97841.81;1712113;75;632115;-72
2023/03/21 07:09:30;;;;;;;1.80;1.15;;;;;;;13.96;51.06;97829.94;1704806;75;693030;-72
2023/03/21 07:12:00;;;;;;;1.70;1.10;;;;;;;13.76;51.95;97833.59;1712659;75;631946;-73
2023/03/21 07:14:33;;;;;;;4.10;1.90;;;;;;;13.57;50.84;97842.25;1704568;75;690963;-71
2023/03/21 07:17:03;;;;;;;4.45;2.20;;;;;;;13.28;52.19;97834.31;1712492;75;632988;-73
2023/03/21 07:19:33;;;;;;;2.65;1.65;;;;;;;13.35;52.21;97834.63;1704622;75;689795;-72
2023/03/21 07:22:04;;;;;;;3.25;1.70;;;;;;;13.42;52.43;97830.66;1712511;75;632066;-75
2023/03/21 07:24:34;;;;;;;2.20;1.60;;;;;;;13.13;52.46;97843.44;1704296;75;689907;-72
2023/03/21 07:27:04;;;;;;;2.40;1.80;;;;;;;13.10;53.31;97841.66;1712117;75;632045;-71
2023/03/21 07:29:37;;;;;;;3.50;1.95;;;;;;;12.78;53.50;97846.38;1704727;75;689900;-71
2023/03/21 07:32:07;;;;;;;4.50;2.00;;;;;;;12.69;54.77;97835.56;1712375;75;631040;-70
2023/03/21 07:34:38;;;;;;;3.60;2.25;;;;;;;12.35;54.80;97844.22;1704259;75;689797;-72
2023/03/21 07:37:08;;;;;;;7.80;2.30;;;;;;;12.02;55.88;97843.84;1712639;75;631004;-71
2023/03/21 07:39:39;;;;;;;2.55;1.80;;;;;;;12.24;56.27;97846.09;1704599;75;689819;-71
2023/03/21 07:42:10;;;;;;;4.30;2.50;;;;;;;12.36;55.84;97847.72;1712749;75;634013;-71
2023/03/21 07:44:43;;;;;;;3.25;1.60;;;;;;;12.25;56.37;97837.38;1704352;75;690972;-71
2023/03/21 07:47:13;;;;;;;5.20;1.70;;;;;;;12.28;56.05;97838.41;1712600;75;631867;-73
2023/03/21 07:49:43;;;;;;;4.45;2.50;;;;;;;12.09;57.13;97835.94;1704586;75;688285;-74
2023/03/21 07:52:14;;;;;;;4.25;2.20;;;;;;;12.02;57.61;97832.88;1712490;75;633978;-72
2023/03/21 07:54:44;;;;;;;3.25;1.80;;;;;;;12.25;56.24;97844.88;1704540;75;690691;-73
2023/03/21 07:57:15;;;;;;;3.70;2.30;;;;;;;12.13;56.39;97838.50;1712706;75;631332;-71
2023/03/21 07:59:48;;;;;;;5.10;2.85;;;;;;;12.08;55.68;97833.69;1704711;75;690799;-76
2023/03/21 08:02:19;;;;;;;3.00;2.10;;;;;;;12.18;56.27;97840.53;1712852;75;633055;-73
2023/03/21 08:04:50;;;;;;;2.75;2.15;;;;;;;12.36;55.63;97837.50;1704986;75;689353;-73
2023/03/21 08:07:20;;;;;;;2.20;1.90;;;;;;;12.43;55.72;97833.56;1713557;75;631998;-71
2023/03/21 08:09:50;;;;;;;3.70;1.80;;;;;;;12.47;54.76;97836.84;1704957;75;690893;-71
2023/03/21 08:12:20;;;;;;;2.40;1.70;;;;;;;12.53;53.66;97825.91;1713104;75;632947;-70
2023/03/21 08:14:53;;;;;;;2.55;2.00;;;;;;;12.76;53.76;97821.41;1704949;75;691775;-70
2023/03/21 08:17:23;;;;;;;3.10;1.70;;;;;;;13.03;53.90;97824.84;1713135;75;631871;-70
2023/03/21 08:19:53;;;;;;;3.35;1.80;;;;;;;12.98;53.04;97815.31;1704772;75;690918;-71
2023/03/21 08:22:24;;;;;;;3.65;2.30;;;;;;;13.05;54.26;97811.38;1712853;75;633075;-72
2023/03/21 08:24:54;;;;;;;3.25;2.00;;;;;;;13.38;52.71;97806.13;1704707;75;687435;-70
2023/03/21 08:27:24;;;;;;;4.00;2.20;;;;;;;13.71;51.73;97798.53;1712999;75;631962;-71
2023/03/21 08:29:57;;;;;;;4.30;2.25;;;;;;;13.82;52.14;97809.59;1704672;75;690941;-71
2023/03/21 08:32:29;;;;;;;4.05;2.50;;;;;;;13.90;51.93;97801.63;1712515;75;633324;-71
2023/03/21 08:35:01;;;;;;;4.25;2.45;;;;;;;14.08;48.37;97801.19;1704931;75;693001;-70
2023/03/21 08:37:33;;;;;;;3.15;2.05;;;;;;;14.35;48.46;97796.25;1713165;75;632017;-70
2023/03/21 08:40:04;;;;;;;2.25;1.55;;;;;;;14.73;47.81;97802.34;1705292;75;692912;-71
2023/03/21 08:42:35;;;;;;;2.20;1.50;;;;;;;14.84;45.55;97800.34;1713218;75;632006;-75
2023/03/21 08:45:11;;;;;;;1.65;1.30;;;;;;;15.01;44.20;97800.34;1705374;75;690912;-74
2023/03/21 08:47:42;;;;;;;3.15;1.30;;;;;;;15.31;42.60;97797.03;1710632;75;632007;-70
2023/03/21 08:50:15;;;;;;;1.10;0.80;;;;;;;15.71;42.22;97798.47;1712688;75;632003;-71
2023/03/21 08:52:46;;;;;;;0.75;0.60;;;;;;;16.05;41.04;97792.06;1705443;75;633057;-70
2023/03/21 08:55:18;;;;;;;1.50;0.90;;;;;;;16.47;42.40;97788.03;1713039;75;633060;-70
2023/03/21 08:57:49;;;;;;;1.70;1.10;;;;;;;16.52;40.11;97798.31;1705773;75;633357;-70
2023/03/21 09:00:22;;;;;;;1.60;0.95;;;;;;;16.86;39.58;97800.09;1713169;75;633962;-72
2023/03/21 09:02:53;;;;;;;1.60;1.05;;;;;;;16.97;39.01;97795.22;1705827;75;633031;-72
2023/03/21 09:05:24;;;;;;;1.30;0.90;;;;;;;17.48;39.58;97802.31;1712902;75;632006;-72
2023/03/21 09:07:55;;;;;;;3.30;1.60;;;;;;;17.19;39.11;97790.75;1705357;75;633033;-72
2023/03/21 09:10:26;;;;;;;2.00;1.30;;;;;;;17.71;39.18;97800.81;1712651;75;633299;-73
2023/03/21 09:12:57;;;;;;;2.50;1.20;;;;;;;17.31;39.24;97800.44;1705595;75;633012;-74
2023/03/21 09:15:32;;;;;;;2.40;1.50;;;;;;;17.55;39.16;97793.44;1713051;75;633028;-73
2023/03/21 09:18:11;;;;;;;1.80;1.10;;;;;;;17.76;39.08;97791.69;1705792;75;632990;-75
2023/03/21 09:20:42;;;;;;;1.00;0.90;;;;;;;17.67;38.93;97792.78;1704104;75;633323;-71
2023/03/21 09:23:13;;;;;;;2.25;1.00;;;;;;;17.65;37.81;97791.78;1713076;75;633070;-73
2023/03/21 09:25:44;;;;;;;1.30;1.00;;;;;;;17.32;38.51;97788.13;1705634;75;634354;-75
2023/03/21 09:28:15;;;;;;;1.40;1.00;;;;;;;17.44;39.06;97788.78;1712900;75;633071;-76
2023/03/21 09:30:48;;;;;;;1.30;0.80;;;;;;;17.27;38.77;97785.41;1705376;75;632924;-72
2023/03/21 09:33:18;;;;;;;0.85;0.85;;;;;;;17.60;38.85;97787.06;1712759;75;631973;-75
2023/03/21 09:35:48;;;;;;;2.20;1.10;;;;;;;17.20;38.98;97781.22;1704810;75;633011;-74
2023/03/21 09:38:18;;;;;;;0.80;0.70;;;;;;;17.25;38.86;97774.88;1712411;75;633082;-73
2023/03/21 09:41:06;;;;;;;1.20;0.80;;;;;;;17.63;38.30;97774.94;1705219;75;633052;-77
2023/03/21 09:43:53;;;;;;;1.80;1.20;;;;;;;17.67;37.29;97773.38;1713120;75;633047;-72
2023/03/21 09:46:37;;;;;;;1.10;0.75;;;;;;;18.57;35.37;97763.16;1704756;75;691524;-74
2023/03/21 09:49:14;;;;;;;1.65;0.90;;;;;;;19.32;34.38;97761.41;1705186;75;632036;-72
2023/03/21 09:51:51;;;;;;;1.00;0.60;;;;;;;19.46;33.30;97757.38;1713021;75;632018;-73
2023/03/21 09:54:26;;;;;;;1.20;0.80;;;;;;;19.09;32.08;97753.47;1705147;75;634108;-73
2023/03/21 09:57:02;;;;;;;0.80;0.70;;;;;;;19.47;32.50;97747.75;1712817;75;632976;-73
2023/03/21 09:59:40;;;;;;;0.40;0.40;;;;;;;20.45;32.17;97742.44;1704602;75;691898;-72
2023/03/21 10:02:37;;;;;;;1.10;0.70;;;;;;;20.22;32.32;97738.09;1705260;75;634135;-71
2023/03/21 10:05:19;;;;;;;1.30;0.50;;;;;;;21.18;30.21;97741.38;1712687;75;632334;-72
2023/03/21 10:07:58;;;;;;;1.20;0.55;;;;;;;20.96;29.16;97736.41;1704468;75;691750;-73
2023/03/21 10:10:33;;;;;;;0.80;0.60;;;;;;;21.53;29.24;97730.84;1705024;75;633032;-72
2023/03/21 10:13:03;;;;;;;0.50;0.45;;;;;;;21.66;27.76;97730.72;1712620;75;633059;-75
2023/03/21 10:15:33;;;;;;;0.60;0.50;;;;;;;21.26;29.02;97733.84;1704911;75;634093;-75
2023/03/21 10:18:09;;;;;;;1.20;0.40;;;;;;;20.92;28.97;97731.16;1712271;75;633053;-75
2023/03/21 10:20:44;;;;;;;4.00;0.50;;;;;;;20.70;29.20;97721.34;1705011;75;633966;-74
2023/03/21 10:23:18;;;;;;;0.60;0.50;;;;;;;20.46;29.27;97722.41;1712306;75;632996;-73
2023/03/21 10:25:52;;;;;;;1.00;0.30;;;;;;;20.40;28.35;97730.88;1704964;75;632019;-73
2023/03/21 10:28:27;;;;;;;0.30;0.30;;;;;;;20.24;29.06;97720.91;1712412;75;633047;-73
2023/03/21 10:31:00;;;;;;;0.30;0.20;;;;;;;20.43;28.53;97721.47;1704341;75;690881;-76
2023/03/21 10:33:40;;;;;;;0.30;0.20;;;;;;;20.37;28.92;97725.66;1712114;75;632139;-73
2023/03/21 10:36:15;;;;;;;0.40;0.40;;;;;;;20.23;29.36;97711.09;1704398;75;685555;-76
2023/03/21 10:38:50;;;;;;;0.40;0.30;;;;;;;19.56;29.15;97710.47;1712264;75;631875;-72
2023/03/21 10:41:20;;;;;;;0.40;0.40;;;;;;;19.59;28.24;97715.69;1704448;75;691959;-77
2023/03/21 10:44:08;;;;;;;0.20;0.20;;;;;;;19.46;29.09;97709.41;1712522;75;632948;-72
2023/03/21 10:46:38;;;;;;;0.20;0.20;;;;;;;19.39;29.43;97713.59;1704379;75;690080;-71
2023/03/21 10:49:11;;;;;;;0.55;0.40;;;;;;;19.24;29.50;97708.56;1712260;75;633057;-72
2023/03/21 10:51:42;;;;;;;3.50;0.45;;;;;;;19.15;29.65;97700.69;1704351;75;690948;-73
2023/03/21 10:54:18;;;;;;;0.30;0.30;;;;;;;18.95;29.54;97707.56;1712546;75;634113;-76
2023/03/21 10:56:59;;;;;;;2.90;0.60;;;;;;;18.86;29.82;97708.75;1704374;75;689534;-74
2023/03/21 10:59:37;;;;;;;0.60;0.40;;;;;;;18.68;30.50;97710.28;1705082;75;632003;-72
2023/03/21 11:02:09;;;;;;;0.40;0.40;;;;;;;18.80;30.24;97699.03;1712725;75;630996;-75
2023/03/21 11:04:42;;;;;;;1.20;0.30;;;;;;;18.75;30.91;97697.81;1705070;75;632998;-72
2023/03/21 11:07:18;;;;;;;0.50;0.20;;;;;;;18.66;30.52;97690.66;1712227;75;632948;-72
2023/03/21 11:09:56;;;;;;;0.80;0.40;;;;;;;18.25;31.24;97691.06;1704176;75;692919;-73
2023/03/21 11:12:37;;;;;;;0.90;0.40;;;;;;;18.54;31.14;97686.56;1704989;75;632983;-70
2023/03/21 11:15:30;;;;;;;4.40;0.50;;;;;;;18.33;31.14;97680.09;1712463;75;632065;-73
2023/03/21 11:18:00;;;;;;;0.50;0.30;;;;;;;18.31;31.48;97684.16;1704219;75;695072;-73
2023/03/21 11:20:35;;;;;;;0.90;0.30;;;;;;;18.35;30.76;97674.78;1712367;75;632998;-71
2023/03/21 11:23:06;;;;;;;0.65;0.30;;;;;;;18.60;30.79;97670.59;1704359;75;691382;-74
2023/03/21 11:25:43;;;;;;;1.85;0.30;;;;;;;18.69;31.23;97666.69;1712579;75;632052;-71
2023/03/21 11:28:19;;;;;;;0.30;0.30;;;;;;;18.63;30.47;97664.00;1704392;75;689951;-73
2023/03/21 11:30:58;;;;;;;0.30;0.30;;;;;;;18.90;30.54;97662.00;1705050;75;632044;-71
2023/03/21 11:33:35;;;;;;;0.50;0.40;;;;;;;18.58;31.00;97658.53;1712459;75;632037;-73
2023/03/21 11:36:28;;;;;;;0.30;0.30;;;;;;;18.56;30.06;97659.06;1704710;75;634125;-72
2023/03/21 11:39:02;;;;;;;0.50;0.50;;;;;;;18.96;30.81;97641.75;1704741;75;632932;-71
2023/03/21 11:41:35;;;;;;;0.60;0.30;;;;;;;19.64;30.40;97649.47;1712384;75;632093;-75
2023/03/21 11:44:06;;;;;;;0.95;0.50;;;;;;;20.03;29.08;97651.38;1704881;75;633014;-72
2023/03/21 11:46:43;;;;;;;0.50;0.40;;;;;;;20.62;28.88;97634.31;1712611;75;631946;-72
2023/03/21 11:49:14;;;;;;;1.00;0.60;;;;;;;20.72;28.46;97629.75;1704248;75;690927;-75
2023/03/21 11:51:53;;;;;;;0.50;0.30;;;;;;;20.75;29.05;97628.66;1712321;75;634013;-73
2023/03/21 11:54:30;;;;;;;1.80;0.25;;;;;;;20.57;28.56;97629.66;1704188;75;692189;-73
2023/03/21 11:57:09;;;;;;;0.20;0.20;;;;;;;20.95;28.72;97629.91;1704945;75;633306;-72
2023/03/21 11:59:48;;;;;;;1.50;0.60;;;;;;;20.33;28.38;97617.56;1712107;75;634240;-73